Time;durP1;ratioP1;P1;durP2;ratioP2;P2;SDS_P1;SDS_P2;PMS_P1;PMS_P2;Temp;Humidity;BMP_temperature;BMP_pressure;BME280_temperature;BME280_humidity;BME280_pressure;Samples;Min_cycle;Max_cycle;Signal;HPM_P1;HPM_P2
2024/01/22 00:00:16;;;;;;;12.43;6.43;;;;;;;2.92;72.03;101283.34;4098092;28;20031;-66
2024/01/22 00:02:19;;;;;;;11.40;5.38;;;;;;;2.90;72.64;101274.69;4098174;29;20067;-65
2024/01/22 00:04:22;;;;;;;12.63;5.88;;;;;;;2.94;73.01;101263.78;4096543;29;20036;-65
2024/01/22 00:06:26;;;;;;;13.00;5.90;;;;;;;2.96;72.70;101260.53;4098342;28;20043;-65
2024/01/22 00:08:29;;;;;;;9.75;5.55;;;;;;;3.05;71.66;101257.59;4091637;28;20039;-65
2024/01/22 00:10:32;;;;;;;10.90;5.90;;;;;;;3.02;71.90;101252.25;4099004;28;20146;-65
2024/01/22 00:12:37;;;;;;;10.93;6.00;;;;;;;2.96;72.42;101257.94;4098255;28;20466;-65
2024/01/22 00:14:40;;;;;;;;;;;;;;;2.93;72.31;101251.75;4095511;29;20074;-65
2024/01/22 00:16:43;;;;;;;15.57;6.40;;;;;;;2.91;72.21;101248.22;4097358;28;20371;-65
2024/01/22 00:18:46;;;;;;;9.65;5.18;;;;;;;2.99;72.16;101246.06;4098289;28;20067;-65
2024/01/22 00:20:49;;;;;;;15.85;5.85;;;;;;;2.99;72.36;101246.94;4098268;29;20035;-65
2024/01/22 00:22:54;;;;;;;12.35;5.95;;;;;;;2.98;72.14;101247.75;4097163;29;20528;-65
2024/01/22 00:24:56;;;;;;;12.73;5.47;;;;;;;3.03;72.08;101255.72;4096711;28;20129;-65
2024/01/22 00:26:58;;;;;;;11.68;5.00;;;;;;;3.09;72.03;101248.38;4098091;28;20067;-65
2024/01/22 00:29:02;;;;;;;8.65;4.88;;;;;;;3.08;71.55;101255.19;4095628;28;20127;-65
2024/01/22 00:31:05;;;;;;;9.70;4.50;;;;;;;3.16;71.82;101241.91;4096000;29;20043;-65
2024/01/22 00:33:08;;;;;;;10.63;5.10;;;;;;;3.23;71.01;101233.75;4097250;28;20516;-65
2024/01/22 00:35:12;;;;;;;7.70;4.97;;;;;;;3.18;71.80;101228.31;4096969;29;20523;-65
2024/01/22 00:37:15;;;;;;;12.68;5.18;;;;;;;3.22;71.28;101234.53;4099139;28;20346;-65
2024/01/22 00:39:19;;;;;;;11.82;5.00;;;;;;;3.21;71.67;101236.19;4096241;29;20079;-65
2024/01/22 00:41:21;;;;;;;11.80;5.63;;;;;;;3.24;71.14;101235.50;4091484;28;20410;-66
2024/01/22 00:43:24;;;;;;;10.70;5.88;;;;;;;3.24;71.04;101227.78;4101106;28;20074;-65
2024/01/22 00:45:27;;;;;;;12.27;6.20;;;;;;;3.16;71.95;101221.34;4105197;28;20044;-65
2024/01/22 00:47:29;;;;;;;9.15;4.68;;;;;;;3.21;71.93;101217.34;4106564;28;20517;-65
2024/01/22 00:49:32;;;;;;;10.13;5.55;;;;;;;3.19;71.57;101200.97;4099361;29;20067;-65
2024/01/22 00:51:37;;;;;;;10.32;4.75;;;;;;;3.17;71.87;101207.69;4100258;28;20067;-66
2024/01/22 00:53:40;;;;;;;14.05;5.28;;;;;;;3.15;71.33;101215.31;4100240;28;20073;-65
2024/01/22 00:55:44;;;;;;;11.00;5.40;;;;;;;3.14;71.74;101205.84;4098724;29;20125;-65
2024/01/22 00:57:47;;;;;;;12.70;5.40;;;;;;;3.12;71.68;101195.47;4097874;29;20518;-65
2024/01/22 00:59:49;;;;;;;11.82;5.22;;;;;;;3.12;72.06;101190.31;4099626;29;20493;-65
2024/01/22 01:01:52;;;;;;;11.27;4.80;;;;;;;3.15;71.86;101199.91;4098581;29;20101;-65
2024/01/22 01:03:56;;;;;;;10.85;4.97;;;;;;;3.13;71.74;101194.69;4100899;29;20512;-65
2024/01/22 01:05:59;;;;;;;9.57;5.83;;;;;;;3.16;71.99;101190.53;4101819;28;20035;-65
2024/01/22 01:08:02;;;;;;;8.80;5.20;;;;;;;3.18;71.60;101189.78;4099874;29;20298;-66
2024/01/22 01:10:06;;;;;;;10.13;4.45;;;;;;;3.16;71.66;101195.66;4098924;29;20035;-65
2024/01/22 01:12:11;;;;;;;9.52;5.07;;;;;;;3.12;72.57;101199.72;4100241;29;20098;-66
2024/01/22 01:14:14;;;;;;;18.25;4.97;;;;;;;3.19;71.79;101199.28;4104456;28;20065;-66
2024/01/22 01:16:17;;;;;;;13.45;4.32;;;;;;;3.18;71.57;101196.63;4106830;28;20046;-66
2024/01/22 01:18:20;;;;;;;8.52;4.43;;;;;;;3.17;71.46;101193.19;4099174;29;20071;-66
2024/01/22 01:20:23;;;;;;;10.13;5.28;;;;;;;3.18;72.33;101183.78;4100863;29;20039;-66
2024/01/22 01:22:26;;;;;;;10.23;4.68;;;;;;;3.20;71.76;101187.31;4099419;29;20044;-66
2024/01/22 01:24:28;;;;;;;10.45;4.50;;;;;;;3.21;71.89;101189.09;4099731;28;20049;-66
2024/01/22 01:26:31;;;;;;;12.10;4.40;;;;;;;3.27;71.03;101191.97;4099705;28;20696;-66
2024/01/22 01:28:36;;;;;;;8.23;4.65;;;;;;;3.24;71.28;101189.25;4101201;28;20042;-66
2024/01/22 01:30:40;;;;;;;10.23;5.32;;;;;;;3.23;71.59;101192.63;4104719;28;20035;-66
2024/01/22 01:32:43;;;;;;;8.40;4.40;;;;;;;3.22;71.07;101190.88;4098908;29;20572;-66
2024/01/22 01:34:45;;;;;;;8.70;4.55;;;;;;;3.27;70.90;101187.75;4099258;28;20136;-67
2024/01/22 01:36:49;;;;;;;10.55;3.83;;;;;;;3.28;71.01;101186.06;4100829;28;20027;-67
2024/01/22 01:38:51;;;;;;;7.88;4.10;;;;;;;3.33;70.72;101182.06;4100312;29;20039;-67
2024/01/22 01:40:54;;;;;;;9.20;4.28;;;;;;;3.25;71.17;101183.31;4101003;28;20091;-66
2024/01/22 01:42:57;;;;;;;10.70;4.10;;;;;;;3.23;71.18;101172.09;4100481;28;20044;-66
2024/01/22 01:45:01;;;;;;;10.32;3.63;;;;;;;3.27;70.76;101174.91;4100456;29;20509;-66
2024/01/22 01:47:04;;;;;;;13.48;4.00;;;;;;;3.32;70.00;101167.44;4097589;29;20514;-66
2024/01/22 01:49:08;;;;;;;7.65;3.47;;;;;;;3.35;70.35;101166.72;4099727;29;20063;-67
2024/01/22 01:51:12;;;;;;;9.57;3.58;;;;;;;3.33;70.04;101161.50;4099154;29;20082;-67
2024/01/22 01:53:15;;;;;;;12.00;4.40;;;;;;;3.42;69.63;101164.56;4099010;28;20047;-66
2024/01/22 01:55:20;;;;;;;6.55;3.05;;;;;;;3.29;70.11;101167.28;4099838;28;20043;-66
2024/01/22 01:57:23;;;;;;;10.00;3.55;;;;;;;3.31;69.99;101163.09;4100297;28;20472;-66
2024/01/22 01:59:27;;;;;;;10.80;3.53;;;;;;;3.35;69.92;101147.03;4098350;28;20126;-66
2024/01/22 02:01:31;;;;;;;8.07;3.80;;;;;;;3.36;69.90;101145.34;4098082;28;20038;-66
2024/01/22 02:03:33;;;;;;;10.38;4.25;;;;;;;3.42;69.47;101133.72;4099248;28;20043;-65
2024/01/22 02:05:36;;;;;;;8.70;3.67;;;;;;;3.38;69.72;101147.22;4100108;29;20035;-65
2024/01/22 02:07:39;;;;;;;7.32;4.10;;;;;;;3.38;70.10;101139.50;4098861;29;20115;-65
2024/01/22 02:09:46;;;;;;;9.95;4.07;;;;;;;3.43;68.90;101142.31;4099015;28;20050;-65
2024/01/22 02:11:49;;;;;;;8.93;2.92;;;;;;;3.46;69.52;101140.81;4093200;29;20857;-65
2024/01/22 02:13:53;;;;;;;10.65;3.45;;;;;;;3.44;69.39;101142.38;4099891;28;20031;-65
2024/01/22 02:15:55;;;;;;;7.53;3.38;;;;;;;3.43;69.37;101130.38;4102093;28;20138;-65
2024/01/22 02:18:02;;;;;;;6.15;2.85;;;;;;;3.48;69.21;101134.06;4101207;28;20094;-65
2024/01/22 02:20:07;;;;;;;9.82;3.55;;;;;;;3.55;68.86;101124.09;4094710;29;20052;-65
2024/01/22 02:22:11;;;;;;;7.60;3.55;;;;;;;3.58;68.25;101121.72;4098894;28;20047;-66
2024/01/22 02:24:16;;;;;;;11.27;3.72;;;;;;;3.65;67.98;101111.81;4098245;29;20047;-65
2024/01/22 02:26:19;;;;;;;7.90;3.60;;;;;;;3.77;67.86;101115.84;4098994;29;20039;-65
2024/01/22 02:28:20;;;;;;;8.38;3.10;;;;;;;3.73;67.90;101099.34;4098410;28;20105;-65
2024/01/22 02:30:23;;;;;;;8.32;3.65;;;;;;;3.69;68.11;101093.97;4099738;28;20127;-65
2024/01/22 02:32:27;;;;;;;10.90;4.00;;;;;;;3.63;68.23;101085.13;4097698;29;20070;-65
2024/01/22 02:34:29;;;;;;;6.75;2.80;;;;;;;3.65;68.47;101082.63;4098653;28;20039;-65
2024/01/22 02:36:32;;;;;;;7.72;3.50;;;;;;;3.64;68.48;101080.88;4098539;28;20552;-65
2024/01/22 02:38:36;;;;;;;5.88;3.33;;;;;;;3.57;68.35;101071.09;4099533;28;20039;-65
2024/01/22 02:40:40;;;;;;;7.30;3.53;;;;;;;3.60;68.25;101077.25;4098343;29;21100;-65
2024/01/22 02:42:43;;;;;;;6.28;3.25;;;;;;;3.66;68.25;101074.13;4100170;28;20489;-65
2024/01/22 02:44:45;;;;;;;7.95;4.07;;;;;;;3.60;68.69;101066.09;4097744;29;20122;-65
2024/01/22 02:46:48;;;;;;;9.18;3.42;;;;;;;3.59;68.29;101054.03;4098329;28;20039;-65
2024/01/22 02:48:51;;;;;;;4.35;2.92;;;;;;;3.66;68.25;101057.03;4098517;29;20118;-65
2024/01/22 02:50:54;;;;;;;6.93;4.15;;;;;;;3.67;68.21;101052.75;4098039;29;20099;-65
2024/01/22 02:52:57;;;;;;;9.63;3.33;;;;;;;3.60;68.54;101042.97;4100056;29;20043;-65
2024/01/22 02:55:00;;;;;;;11.30;3.65;;;;;;;3.69;67.92;101046.00;4097252;29;20493;-65
2024/01/22 02:57:05;;;;;;;8.43;3.67;;;;;;;3.68;68.27;101036.53;4099348;28;20035;-65
2024/01/22 02:59:08;;;;;;;8.20;3.58;;;;;;;3.62;68.10;101029.38;4098278;28;20453;-65
2024/01/22 03:01:10;;;;;;;9.38;3.42;;;;;;;3.64;67.99;101021.75;4097119;28;20035;-65
2024/01/22 03:03:13;;;;;;;8.30;3.50;;;;;;;3.61;68.29;101022.47;4098545;29;20045;-65
2024/01/22 03:05:17;;;;;;;7.90;3.90;;;;;;;3.65;67.70;101006.41;4098639;28;20039;-65
2024/01/22 03:07:19;;;;;;;6.60;3.08;;;;;;;3.60;68.09;101022.41;4091601;29;20045;-65
2024/01/22 03:09:22;;;;;;;8.32;3.28;;;;;;;3.55;68.67;101022.16;4099917;28;20047;-65
2024/01/22 03:11:25;;;;;;;10.48;4.10;;;;;;;3.61;68.30;101013.88;4098474;29;20045;-65
2024/01/22 03:13:29;;;;;;;8.27;3.30;;;;;;;3.54;68.51;101015.25;4097082;29;20077;-65
2024/01/22 03:15:32;;;;;;;6.43;3.33;;;;;;;3.53;68.52;101017.75;4095730;29;20413;-65
2024/01/22 03:17:35;;;;;;;6.38;3.08;;;;;;;3.53;67.99;101013.47;4096205;29;20071;-65
2024/01/22 03:19:38;;;;;;;7.68;3.17;;;;;;;3.48;68.27;101026.09;4097939;28;20047;-65
2024/01/22 03:21:41;;;;;;;7.38;2.92;;;;;;;3.51;68.35;101020.22;4097298;29;20070;-66
2024/01/22 03:23:44;;;;;;;7.00;3.95;;;;;;;3.50;68.75;101028.75;4096929;29;20067;-65
2024/01/22 03:25:46;;;;;;;7.65;3.17;;;;;;;3.47;68.33;101020.88;4099136;28;20035;-65
2024/01/22 03:27:49;;;;;;;8.27;3.45;;;;;;;3.40;68.66;101016.22;4098444;29;20078;-65
2024/01/22 03:29:53;;;;;;;8.18;3.75;;;;;;;3.43;69.00;101009.56;4098112;28;20494;-65
2024/01/22 03:31:56;;;;;;;7.13;3.38;;;;;;;3.39;68.59;100999.91;4099658;28;20042;-65
2024/01/22 03:33:59;;;;;;;7.78;3.15;;;;;;;3.41;68.62;100993.16;4082590;29;20126;-65
2024/01/22 03:36:03;;;;;;;6.95;3.42;;;;;;;3.41;68.97;100993.16;4098604;28;20043;-65
2024/01/22 03:38:06;;;;;;;5.63;3.40;;;;;;;3.44;68.63;101000.16;4099643;28;20045;-65
2024/01/22 03:40:09;;;;;;;7.20;3.63;;;;;;;3.41;68.54;101000.00;4097874;28;20070;-65
2024/01/22 03:42:12;;;;;;;7.85;3.83;;;;;;;3.32;68.71;101001.28;4094665;29;20027;-65
2024/01/22 03:44:15;;;;;;;7.88;3.50;;;;;;;3.35;69.20;101012.53;4098280;28;20066;-65
2024/01/22 03:46:20;;;;;;;6.18;3.58;;;;;;;3.46;68.89;101016.53;4094279;29;20070;-65
2024/01/22 03:48:22;;;;;;;7.63;3.85;;;;;;;3.42;68.64;101012.94;4097601;28;20156;-65
2024/01/22 03:50:25;;;;;;;6.88;3.67;;;;;;;3.35;69.18;101007.41;4097958;28;20039;-65
2024/01/22 03:52:28;;;;;;;10.85;3.70;;;;;;;3.38;68.87;101007.56;4095960;29;20122;-65
2024/01/22 03:54:31;;;;;;;6.75;3.20;;;;;;;3.45;68.84;101007.94;4097494;29;20044;-65
2024/01/22 03:56:34;;;;;;;10.88;3.88;;;;;;;3.37;68.95;101011.78;4097561;29;20189;-65
2024/01/22 03:58:39;;;;;;;7.53;3.97;;;;;;;3.38;68.80;100993.00;4096345;29;20039;-66
2024/01/22 04:00:42;;;;;;;8.80;3.17;;;;;;;3.38;69.13;100993.00;4097314;29;20043;-66
2024/01/22 04:02:48;;;;;;;9.85;3.65;;;;;;;3.28;69.50;100990.75;4098022;28;20409;-65
2024/01/22 04:04:52;;;;;;;11.27;3.78;;;;;;;3.25;69.19;100996.63;4098275;29;20134;-65
2024/01/22 04:06:55;;;;;;;9.55;4.55;;;;;;;3.30;69.08;100999.41;4099813;28;20490;-65
2024/01/22 04:08:58;;;;;;;10.60;3.28;;;;;;;3.30;69.40;100984.91;4099294;29;20098;-65
2024/01/22 04:11:01;;;;;;;9.43;3.38;;;;;;;3.33;69.78;100981.63;4098419;28;20054;-65
2024/01/22 04:13:04;;;;;;;8.55;3.60;;;;;;;3.31;69.28;100972.94;4099186;29;20117;-65
2024/01/22 04:15:08;;;;;;;7.28;3.38;;;;;;;3.30;69.42;100984.00;4097455;29;20035;-65
2024/01/22 04:17:11;;;;;;;8.60;3.70;;;;;;;3.31;69.52;100990.91;4099094;28;20062;-65
2024/01/22 04:19:15;;;;;;;8.38;3.60;;;;;;;3.32;69.79;100970.44;4102654;29;20528;-65
2024/01/22 04:21:17;;;;;;;8.27;3.35;;;;;;;3.32;69.75;100957.59;4102212;29;20066;-66
2024/01/22 04:23:20;;;;;;;6.68;3.20;;;;;;;3.31;69.33;100955.84;4101836;29;20050;-66
2024/01/22 04:25:22;;;;;;;6.60;2.88;;;;;;;3.30;70.06;100948.94;4094941;29;20379;-66
2024/01/22 04:27:25;;;;;;;7.70;3.42;;;;;;;3.30;69.80;100942.88;4101296;29;20528;-66
2024/01/22 04:29:28;;;;;;;7.13;3.67;;;;;;;3.32;70.33;100937.03;4101545;29;20039;-65
2024/01/22 04:31:31;;;;;;;7.45;3.67;;;;;;;3.34;70.09;100929.41;4101258;29;20035;-66
2024/01/22 04:33:34;;;;;;;5.93;3.22;;;;;;;3.34;69.78;100926.81;4099741;29;20058;-66
2024/01/22 04:35:38;;;;;;;8.90;3.50;;;;;;;3.34;69.76;100926.81;4101252;28;20036;-65
2024/01/22 04:37:41;;;;;;;6.75;3.20;;;;;;;3.35;70.21;100923.47;4101460;29;20581;-66
2024/01/22 04:39:44;;;;;;;7.95;3.38;;;;;;;3.33;70.35;100917.38;4101402;29;20035;-66
2024/01/22 04:41:47;;;;;;;7.65;3.38;;;;;;;3.38;70.01;100915.03;4099858;29;20142;-65
2024/01/22 04:43:50;;;;;;;6.43;3.22;;;;;;;3.44;69.84;100913.63;4099894;29;20169;-65
2024/01/22 04:45:54;;;;;;;5.88;3.33;;;;;;;3.36;70.16;100912.41;4100832;28;20036;-65
2024/01/22 04:47:57;;;;;;;6.75;3.10;;;;;;;3.33;70.13;100912.25;4100304;28;20094;-65
2024/01/22 04:50:00;;;;;;;6.15;3.50;;;;;;;3.37;70.05;100892.69;4100721;29;20138;-65
2024/01/22 04:52:05;;;;;;;11.48;4.30;;;;;;;3.42;70.15;100902.41;4100359;28;20498;-65
2024/01/22 04:54:08;;;;;;;8.90;2.92;;;;;;;3.46;70.33;100909.47;4099578;28;20039;-65
2024/01/22 04:56:11;;;;;;;10.68;3.72;;;;;;;3.47;69.90;100902.63;4094642;29;22569;-65
2024/01/22 04:58:14;;;;;;;6.05;3.33;;;;;;;3.56;69.65;100913.38;4099352;28;20046;-65
2024/01/22 05:00:17;;;;;;;7.00;3.35;;;;;;;3.50;70.08;100905.34;4097615;28;20043;-68
2024/01/22 05:02:27;;;;;;;5.72;3.22;;;;;;;3.48;69.73;100906.97;4099783;29;20056;-67
2024/01/22 05:04:30;;;;;;;6.85;3.33;;;;;;;3.57;69.93;100893.72;4099199;28;20050;-67
2024/01/22 05:06:33;;;;;;;7.63;3.70;;;;;;;3.53;69.96;100891.78;4101838;29;20098;-67
2024/01/22 05:08:37;;;;;;;7.97;4.30;;;;;;;3.58;69.77;100898.91;4101860;28;20144;-66
2024/01/22 05:10:42;;;;;;;8.80;3.63;;;;;;;3.70;69.63;100897.78;4099847;28;20047;-66
2024/01/22 05:12:45;;;;;;;6.13;3.78;;;;;;;3.67;69.46;100893.34;4100596;28;20035;-66
2024/01/22 05:14:48;;;;;;;7.88;3.53;;;;;;;3.70;69.37;100882.34;4096971;28;20070;-66
2024/01/22 05:16:51;;;;;;;6.70;3.33;;;;;;;3.71;69.73;100885.00;4098307;28;20038;-66
2024/01/22 05:18:54;;;;;;;5.95;3.08;;;;;;;3.75;69.16;100886.00;4097763;29;20066;-66
2024/01/22 05:20:57;;;;;;;7.55;3.40;;;;;;;3.63;69.91;100886.28;4099728;29;20043;-66
2024/01/22 05:23:00;;;;;;;10.13;3.92;;;;;;;3.62;70.09;100880.28;4101230;28;20047;-66
2024/01/22 05:25:05;;;;;;;5.18;2.75;;;;;;;3.71;69.65;100885.00;4099996;28;20130;-66
2024/01/22 05:27:09;;;;;;;6.15;3.03;;;;;;;3.71;69.66;100874.69;4100843;28;20090;-66
2024/01/22 05:29:12;;;;;;;9.10;3.33;;;;;;;3.76;69.38;100868.06;4100469;28;20047;-66
2024/01/22 05:31:15;;;;;;;6.47;3.08;;;;;;;3.79;69.25;100852.78;4101193;28;20043;-66
2024/01/22 05:33:18;;;;;;;5.38;2.70;;;;;;;3.85;69.15;100844.47;4107566;28;20131;-66
2024/01/22 05:35:20;;;;;;;7.47;2.92;;;;;;;3.86;69.07;100842.81;4100319;29;20045;-66
2024/01/22 05:37:24;;;;;;;10.93;3.40;;;;;;;3.84;68.95;100833.34;4084336;29;20059;-66
2024/01/22 05:39:29;;;;;;;5.25;2.38;;;;;;;3.95;68.58;100843.25;4101465;28;20102;-66
2024/01/22 05:41:33;;;;;;;7.97;3.13;;;;;;;3.95;68.84;100832.94;4101073;28;20043;-66
2024/01/22 05:43:36;;;;;;;6.60;3.03;;;;;;;3.97;68.79;100828.75;4100484;28;20441;-66
2024/01/22 05:45:39;;;;;;;5.88;2.97;;;;;;;4.06;68.19;100821.47;4101217;28;20115;-66
2024/01/22 05:47:42;;;;;;;4.32;2.50;;;;;;;4.11;67.86;100822.56;4101357;29;20133;-66
2024/01/22 05:49:45;;;;;;;7.55;3.08;;;;;;;4.21;67.57;100826.44;4101334;29;20066;-66
2024/01/22 05:51:49;;;;;;;4.80;2.15;;;;;;;4.21;67.73;100823.00;4099965;29;20035;-66
2024/01/22 05:53:52;;;;;;;7.03;2.67;;;;;;;4.27;67.57;100821.56;4098239;29;20047;-66
2024/01/22 05:55:55;;;;;;;5.32;2.70;;;;;;;4.26;67.48;100826.66;4101053;29;20043;-66
2024/01/22 05:57:59;;;;;;;6.45;2.60;;;;;;;4.28;67.50;100822.44;4101095;28;20050;-66
2024/01/22 06:00:09;;;;;;;5.85;2.08;;;;;;;4.28;67.42;100827.59;4100238;28;20399;-66
2024/01/22 06:02:15;;;;;;;3.78;2.20;;;;;;;4.22;67.37;100832.47;4100737;28;20066;-66
2024/01/22 06:04:18;;;;;;;6.93;2.75;;;;;;;4.29;67.41;100835.41;4099159;29;20035;-66
2024/01/22 06:06:20;;;;;;;6.75;2.38;;;;;;;4.41;67.08;100819.63;4091107;29;20050;-66
2024/01/22 06:08:23;;;;;;;3.88;1.92;;;;;;;4.24;67.40;100828.28;4100986;28;20043;-66
2024/01/22 06:10:27;;;;;;;6.72;2.40;;;;;;;4.34;67.22;100815.88;4100945;29;20073;-66
2024/01/22 06:12:30;;;;;;;5.75;2.60;;;;;;;4.28;67.49;100812.16;4099499;29;20413;-66
2024/01/22 06:14:34;;;;;;;4.43;2.45;;;;;;;4.32;66.98;100796.03;4100121;28;20122;-66
2024/01/22 06:16:37;;;;;;;4.03;2.25;;;;;;;4.30;67.04;100785.69;4100953;29;20532;-66
2024/01/22 06:18:41;;;;;;;9.32;3.60;;;;;;;4.26;67.79;100772.59;4100993;29;20098;-66
2024/01/22 06:20:44;;;;;;;4.22;2.13;;;;;;;4.28;67.62;100776.13;4098855;29;20070;-66
2024/01/22 06:22:47;;;;;;;3.70;2.17;;;;;;;4.26;67.66;100764.88;4098530;29;20039;-66
2024/01/22 06:24:50;;;;;;;6.03;2.28;;;;;;;4.27;67.92;100770.09;4100641;29;20122;-66
2024/01/22 06:26:53;;;;;;;5.95;2.47;;;;;;;4.23;67.81;100757.03;4100684;29;20075;-66
2024/01/22 06:28:57;;;;;;;3.53;2.33;;;;;;;4.27;67.66;100748.63;4099664;29;20055;-66
2024/01/22 06:31:02;;;;;;;5.18;2.20;;;;;;;4.26;67.62;100752.03;4100341;28;20469;-66
2024/01/22 06:33:05;;;;;;;7.10;2.75;;;;;;;4.27;67.64;100743.50;4098743;28;20055;-66
2024/01/22 06:35:09;;;;;;;5.88;2.35;;;;;;;4.27;67.74;100751.22;4108473;28;20173;-66
2024/01/22 06:37:11;;;;;;;5.57;2.08;;;;;;;4.24;68.25;100758.81;4115349;28;20066;-66
2024/01/22 06:39:14;;;;;;;3.60;2.33;;;;;;;4.28;67.89;100751.28;4104462;28;20054;-66
2024/01/22 06:41:18;;;;;;;4.13;2.05;;;;;;;4.24;68.19;100762.25;4099199;28;20118;-66
2024/01/22 06:43:22;;;;;;;8.15;2.25;;;;;;;4.33;67.59;100749.78;4091635;29;20074;-66
2024/01/22 06:45:25;;;;;;;6.60;2.45;;;;;;;4.34;67.50;100767.00;4098966;29;20066;-66
2024/01/22 06:47:30;;;;;;;4.75;1.98;;;;;;;4.28;67.67;100768.41;4099544;28;20050;-66
2024/01/22 06:49:33;;;;;;;4.63;2.33;;;;;;;4.33;67.94;100748.91;4099464;29;20453;-66
2024/01/22 06:51:36;;;;;;;3.55;1.95;;;;;;;4.37;67.58;100750.81;4098815;29;20114;-66
2024/01/22 06:53:48;;;;;;;9.10;2.72;;;;;;;4.33;67.44;100754.06;4100516;28;20497;-66
2024/01/22 06:55:50;;;;;;;4.15;2.33;;;;;;;4.43;67.28;100738.19;4100324;28;20406;-66
2024/01/22 06:57:53;;;;;;;4.07;2.05;;;;;;;4.41;67.00;100721.81;4100275;29;20070;-66
2024/01/22 06:59:56;;;;;;;3.10;1.55;;;;;;;4.42;67.03;100720.97;4099711;29;20066;-66
2024/01/22 07:01:59;;;;;;;4.22;2.20;;;;;;;4.43;66.93;100720.19;4099813;28;20054;-66
2024/01/22 07:04:04;;;;;;;4.57;1.80;;;;;;;4.47;66.83;100716.94;4100276;28;20570;-66
2024/01/22 07:06:07;;;;;;;3.95;1.50;;;;;;;4.48;66.69;100710.06;4100096;29;20130;-66
2024/01/22 07:08:10;;;;;;;4.35;1.92;;;;;;;4.51;66.61;100716.25;4099280;29;20467;-66
2024/01/22 07:10:13;;;;;;;4.35;2.08;;;;;;;4.50;66.57;100711.91;4099992;28;20106;-66
2024/01/22 07:12:17;;;;;;;7.20;1.83;;;;;;;4.58;66.17;100713.94;4099800;29;20086;-66
2024/01/22 07:14:20;;;;;;;4.47;1.88;;;;;;;4.62;65.86;100695.22;4099091;28;20474;-66
2024/01/22 07:16:23;;;;;;;4.10;1.88;;;;;;;4.57;66.13;100694.13;4098737;29;20051;-66
2024/01/22 07:18:26;;;;;;;5.10;1.95;;;;;;;4.62;65.88;100701.25;4097716;29;20038;-66
2024/01/22 07:20:30;;;;;;;5.07;1.73;;;;;;;4.74;65.52;100715.47;4099768;28;20039;-65
2024/01/22 07:22:36;;;;;;;8.45;2.47;;;;;;;4.77;65.40;100720.72;4098444;29;20043;-65
2024/01/22 07:24:39;;;;;;;3.72;1.80;;;;;;;4.85;64.62;100725.38;4098882;29;20027;-65
2024/01/22 07:26:42;;;;;;;2.97;1.52;;;;;;;4.88;64.66;100728.09;4099580;28;20454;-65
2024/01/22 07:28:45;;;;;;;4.63;1.83;;;;;;;4.82;65.06;100724.38;4096927;29;20627;-66
2024/01/22 07:30:50;;;;;;;3.95;1.92;;;;;;;4.90;64.92;100731.59;4098115;29;20043;-65
2024/01/22 07:32:53;;;;;;;2.50;1.30;;;;;;;4.81;65.68;100726.06;4099335;28;20386;-66
2024/01/22 07:34:55;;;;;;;3.78;2.15;;;;;;;4.76;65.94;100726.69;4102409;28;20070;-65
2024/01/22 07:36:59;;;;;;;4.18;2.00;;;;;;;4.81;66.04;100720.06;4107336;28;20464;-65
2024/01/22 07:39:02;;;;;;;5.22;1.88;;;;;;;4.76;65.76;100719.88;4115522;28;20118;-65
2024/01/22 07:41:05;;;;;;;4.82;2.03;;;;;;;4.79;65.74;100722.56;4100616;28;20049;-66
2024/01/22 07:43:09;;;;;;;4.13;1.55;;;;;;;4.93;64.70;100723.13;4099490;28;20150;-65
2024/01/22 07:45:12;;;;;;;3.75;1.45;;;;;;;4.96;64.82;100727.53;4098531;29;20089;-65
2024/01/22 07:47:14;;;;;;;5.95;2.33;;;;;;;5.04;64.26;100724.44;4098177;29;20043;-66
2024/01/22 07:49:17;;;;;;;4.15;1.55;;;;;;;5.06;64.35;100727.09;4099514;28;20535;-65
2024/01/22 07:51:21;;;;;;;4.85;1.80;;;;;;;5.10;64.31;100736.72;4097082;28;20050;-65
2024/01/22 07:53:26;;;;;;;3.53;1.70;;;;;;;5.23;63.83;100728.66;4091271;28;20102;-66
2024/01/22 07:55:29;;;;;;;4.85;1.67;;;;;;;5.24;63.46;100733.00;4099490;28;20043;-66
2024/01/22 07:57:32;;;;;;;5.70;2.10;;;;;;;5.38;63.19;100740.41;4099507;28;20395;-65
2024/01/22 07:59:37;;;;;;;4.00;1.73;;;;;;;5.42;63.18;100743.16;4098021;29;20122;-66
2024/01/22 08:01:40;;;;;;;4.88;1.60;;;;;;;5.42;63.25;100739.69;4099136;28;20090;-66
2024/01/22 08:03:43;;;;;;;2.47;1.42;;;;;;;5.37;63.21;100747.25;4098500;28;20138;-66
2024/01/22 08:05:46;;;;;;;5.20;1.75;;;;;;;5.44;63.59;100752.66;4098149;29;20054;-65
2024/01/22 08:07:49;;;;;;;4.47;1.77;;;;;;;5.34;64.02;100752.25;4098333;28;20098;-66
2024/01/22 08:09:54;;;;;;;2.58;1.52;;;;;;;5.45;63.68;100759.53;4099419;29;20047;-66
2024/01/22 08:11:57;;;;;;;5.78;2.13;;;;;;;5.51;63.67;100760.69;4098982;28;20039;-66
2024/01/22 08:14:01;;;;;;;4.00;1.52;;;;;;;5.44;63.81;100760.38;4098287;28;20046;-66
2024/01/22 08:16:05;;;;;;;3.60;1.55;;;;;;;5.50;63.79;100758.91;4099230;29;20424;-66
2024/01/22 08:18:08;;;;;;;4.13;1.67;;;;;;;5.69;63.61;100769.97;4099285;29;20126;-66
2024/01/22 08:20:12;;;;;;;2.47;1.70;;;;;;;5.86;63.75;100768.91;4082255;29;20442;-66
2024/01/22 08:22:14;;;;;;;3.55;1.95;;;;;;;5.82;64.02;100772.19;4098272;28;20150;-66
2024/01/22 08:24:17;;;;;;;8.90;1.90;;;;;;;5.79;64.51;100756.59;4098355;28;20032;-66
2024/01/22 08:26:21;;;;;;;3.65;1.73;;;;;;;5.97;64.73;100776.19;4097992;29;20138;-66
2024/01/22 08:28:24;;;;;;;3.67;1.58;;;;;;;5.90;65.27;100773.38;4098272;28;20043;-66
2024/01/22 08:30:29;;;;;;;7.13;2.22;;;;;;;5.98;65.71;100765.09;4099147;29;20065;-66
2024/01/22 08:32:32;;;;;;;;;;;;;;;5.93;66.69;100770.91;4097322;29;20067;-66
2024/01/22 08:34:38;;;;;;;3.78;1.63;;;;;;;5.98;67.15;100768.53;4092385;28;20010;-66
2024/01/22 08:36:42;;;;;;;6.22;1.80;;;;;;;5.95;68.31;100774.41;4096714;28;20062;-66
2024/01/22 08:38:45;;;;;;;5.22;1.60;;;;;;;5.92;69.30;100789.78;4103698;28;20047;-66
2024/01/22 08:40:48;;;;;;;4.57;1.80;;;;;;;5.87;70.25;100790.41;4098126;29;20043;-66
2024/01/22 08:42:52;;;;;;;4.07;1.80;;;;;;;5.88;71.04;100772.41;4097855;28;20050;-66
2024/01/22 08:44:55;;;;;;;5.65;2.03;;;;;;;5.76;72.63;100784.84;4098965;29;20063;-66
2024/01/22 08:46:58;;;;;;;3.85;1.50;;;;;;;5.67;73.71;100777.66;4099033;28;20055;-67
2024/01/22 08:49:01;;;;;;;5.15;1.58;;;;;;;5.66;74.02;100764.69;4082023;29;20134;-66
2024/01/22 08:51:04;;;;;;;4.30;1.83;;;;;;;5.69;74.33;100764.81;4097640;29;20069;-66
2024/01/22 08:53:07;;;;;;;6.63;2.13;;;;;;;5.71;74.51;100776.03;4097534;28;20039;-66
2024/01/22 08:55:10;;;;;;;8.18;1.58;;;;;;;5.66;74.80;100764.69;4097568;29;20035;-67
2024/01/22 08:57:13;;;;;;;4.38;1.80;;;;;;;5.60;75.18;100766.19;4097759;29;20575;-67
2024/01/22 08:59:18;;;;;;;4.57;1.67;;;;;;;5.63;75.11;100777.47;4098062;28;20043;-66
2024/01/22 09:01:21;;;;;;;5.05;1.70;;;;;;;5.65;74.89;100765.50;4097607;29;20067;-67
2024/01/22 09:03:24;;;;;;;5.07;1.70;;;;;;;5.68;75.30;100768.19;4091531;29;20054;-67
2024/01/22 09:05:28;;;;;;;12.77;2.13;;;;;;;5.71;75.67;100752.84;4101830;29;20043;-66
2024/01/22 09:07:31;;;;;;;8.15;2.67;;;;;;;5.59;75.66;100738.66;4100768;28;20109;-67
2024/01/22 09:09:34;;;;;;;4.88;1.45;;;;;;;5.62;76.19;100743.03;4100553;29;20043;-66
2024/01/22 09:11:36;;;;;;;8.95;2.05;;;;;;;5.58;75.78;100741.19;4101563;28;20498;-66
2024/01/22 09:13:40;;;;;;;8.15;2.55;;;;;;;5.58;76.22;100736.91;4101039;29;20039;-67
2024/01/22 09:15:48;;;;;;;3.67;1.80;;;;;;;5.67;75.95;100743.25;4101843;28;20130;-67
2024/01/22 09:17:52;;;;;;;3.97;1.77;;;;;;;5.66;76.11;100744.06;4101730;29;20102;-66
2024/01/22 09:19:54;;;;;;;7.15;2.08;;;;;;;5.67;76.23;100741.53;4100556;29;20047;-67
2024/01/22 09:21:57;;;;;;;9.05;2.30;;;;;;;5.66;76.63;100732.03;4100781;28;20043;-67
2024/01/22 09:24:01;;;;;;;5.57;1.98;;;;;;;5.55;77.33;100721.31;4099904;29;20556;-67
2024/01/22 09:26:04;;;;;;;3.35;2.08;;;;;;;5.56;77.90;100735.97;4100221;29;20045;-67
2024/01/22 09:28:08;;;;;;;8.35;2.67;;;;;;;5.59;77.74;100720.63;4106412;28;20312;-67
2024/01/22 09:30:11;;;;;;;6.15;1.73;;;;;;;5.79;77.54;100723.06;4101446;29;20557;-66
2024/01/22 09:32:20;;;;;;;7.10;2.25;;;;;;;5.83;77.40;100724.06;4100088;29;20043;-66
2024/01/22 09:34:22;;;;;;;4.32;1.73;;;;;;;5.71;78.31;100724.47;4099906;28;20040;-67
2024/01/22 09:36:25;;;;;;;7.60;2.50;;;;;;;5.79;77.77;100715.31;4098689;29;20123;-66
2024/01/22 09:38:28;;;;;;;2.97;1.65;;;;;;;5.78;78.12;100723.88;4101239;28;20105;-66